createdAt,value
2018-03-08T00:00:46.551Z,94218
2018-03-08T00:03:15.406Z,94236
2018-03-08T00:05:44.982Z,94234
2018-03-08T00:08:14.570Z,94236
2018-03-08T00:10:44.506Z,94247
2018-03-08T00:13:12.575Z,94241
2018-03-08T00:15:41.618Z,94241
2018-03-08T00:18:11.088Z,94243
2018-03-08T00:20:39.211Z,94242
2018-03-08T00:23:07.415Z,94240
2018-03-08T00:25:35.537Z,94242
2018-03-08T00:28:03.610Z,94248
2018-03-08T00:30:31.723Z,94251
2018-03-08T00:32:59.998Z,94254
2018-03-08T00:35:28.105Z,94268
2018-03-08T00:37:56.146Z,94246
2018-03-08T00:40:24.229Z,94258
2018-03-08T00:42:52.314Z,94272
2018-03-08T00:45:20.361Z,94248
2018-03-08T00:47:48.415Z,94253
2018-03-08T00:50:16.521Z,94265
2018-03-08T00:52:44.713Z,94258
2018-03-08T00:55:12.762Z,94271
2018-03-08T00:57:41.174Z,94261
2018-03-08T01:00:09.215Z,94262
2018-03-08T01:02:37.275Z,94263
2018-03-08T01:05:05.326Z,94263
2018-03-08T01:07:34.171Z,94267
2018-03-08T01:10:02.235Z,94270
2018-03-08T01:12:30.853Z,94263
2018-03-08T01:14:58.958Z,94282
2018-03-08T01:17:28.610Z,94270
2018-03-08T01:19:56.710Z,94261
2018-03-08T01:22:24.789Z,94261
2018-03-08T01:24:52.838Z,94274
2018-03-08T01:27:20.889Z,94260
2018-03-08T01:29:50.357Z,94278
2018-03-08T01:32:18.438Z,94264
2018-03-08T01:34:46.511Z,94276
2018-03-08T01:37:15.211Z,94275
2018-03-08T01:39:43.267Z,94288
2018-03-08T01:42:11.321Z,94278
2018-03-08T01:44:40.150Z,94278
2018-03-08T01:47:08.595Z,94289
2018-03-08T01:49:36.643Z,94305
2018-03-08T01:52:13.226Z,94294
2018-03-08T01:54:42.145Z,94295
2018-03-08T01:57:10.258Z,94288
2018-03-08T01:59:38.312Z,94300
2018-03-08T02:02:06.469Z,94290
2018-03-08T02:04:34.510Z,94316
2018-03-08T02:07:03.358Z,94288
2018-03-08T02:09:31.413Z,94307
2018-03-08T02:11:59.529Z,94295
2018-03-08T02:14:27.699Z,94304
2018-03-08T02:16:56.566Z,94307
2018-03-08T02:19:24.676Z,94303
2018-03-08T02:21:52.736Z,94316
2018-03-08T02:24:20.826Z,94312
2018-03-08T02:26:48.869Z,94316
2018-03-08T02:29:16.939Z,94330
2018-03-08T02:31:46.738Z,94308
2018-03-08T02:34:16.807Z,94318
2018-03-08T02:36:45.965Z,94305
2018-03-08T02:39:15.910Z,94324
2018-03-08T02:41:43.957Z,94312
2018-03-08T02:44:12.797Z,94309
2018-03-08T02:46:40.849Z,94317
2018-03-08T02:49:08.912Z,94315
2018-03-08T02:51:37.252Z,94310
2018-03-08T02:54:05.310Z,94318
2018-03-08T02:56:33.353Z,94319
2018-03-08T02:59:01.415Z,94329
2018-03-08T03:01:30.230Z,94325
2018-03-08T03:03:58.295Z,94322
2018-03-08T03:06:26.338Z,94320
2018-03-08T03:08:55.178Z,94317
2018-03-08T03:11:23.226Z,94325
2018-03-08T03:13:52.375Z,94324
2018-03-08T03:16:20.413Z,94319
2018-03-08T03:18:48.478Z,94315
2018-03-08T03:21:16.603Z,94316
2018-03-08T03:23:44.672Z,94335
2018-03-08T03:26:13.402Z,94329
2018-03-08T03:28:41.464Z,94324
2018-03-08T03:31:09.523Z,94325
2018-03-08T03:33:37.702Z,94335
2018-03-08T03:36:06.798Z,94335
2018-03-08T03:38:35.422Z,94327
2018-03-08T03:41:04.294Z,94336
2018-03-08T03:43:32.350Z,94335
2018-03-08T03:46:00.434Z,94331
2018-03-08T03:48:28.518Z,94334
2018-03-08T03:50:56.582Z,94343
2018-03-08T03:53:24.638Z,94330
2018-03-08T03:55:52.682Z,94337
2018-03-08T03:58:21.519Z,94338
2018-03-08T04:00:49.566Z,94340
2018-03-08T04:03:17.618Z,94347
2018-03-08T04:05:45.674Z,94356
2018-03-08T04:08:13.845Z,94360
2018-03-08T04:10:41.897Z,94345
2018-03-08T04:13:12.983Z,94358
2018-03-08T04:15:41.154Z,94362
2018-03-08T04:18:09.223Z,94371
2018-03-08T04:20:37.275Z,94366
2018-03-08T04:23:05.346Z,94379
2018-03-08T04:25:33.445Z,94380
2018-03-08T04:28:01.527Z,94371
2018-03-08T04:30:29.603Z,94380
2018-03-08T04:32:57.674Z,94384
2018-03-08T04:35:25.750Z,94379
2018-03-08T04:37:53.819Z,94386
2018-03-08T04:40:21.908Z,94394
2018-03-08T04:42:49.978Z,94392
2018-03-08T04:45:18.043Z,94388
2018-03-08T04:47:46.102Z,94398
2018-03-08T04:50:14.150Z,94384
2018-03-08T04:52:42.966Z,94399
2018-03-08T04:55:11.046Z,94397
2018-03-08T04:57:39.095Z,94401
2018-03-08T05:00:07.918Z,94399
2018-03-08T05:02:36.022Z,94392
2018-03-08T05:05:04.086Z,94405
2018-03-08T05:07:32.174Z,94395
2018-03-08T05:10:00.234Z,94407
2018-03-08T05:12:28.286Z,94406
2018-03-08T05:14:56.352Z,94412
2018-03-08T05:17:25.198Z,94418
2018-03-08T05:19:53.274Z,94420
2018-03-08T05:22:21.359Z,94424
2018-03-08T05:24:49.423Z,94423
2018-03-08T05:27:18.129Z,94437
2018-03-08T05:29:46.222Z,94427
2018-03-08T05:32:14.250Z,94438
2018-03-08T05:34:42.351Z,94444
2018-03-08T05:37:10.835Z,94437
2018-03-08T05:39:38.907Z,94453
2018-03-08T05:42:06.981Z,94443
2018-03-08T05:44:35.053Z,94452
2018-03-08T05:47:03.105Z,94447
2018-03-08T05:49:31.210Z,94460
2018-03-08T05:51:59.271Z,94450
2018-03-08T05:54:27.343Z,94460
2018-03-08T05:56:55.384Z,94462
2018-03-08T05:59:25.343Z,94473
2018-03-08T06:01:54.250Z,94474
2018-03-08T06:04:22.334Z,94484
2018-03-08T06:06:50.386Z,94482
2018-03-08T06:09:18.551Z,94488
2018-03-08T06:11:46.615Z,94492
2018-03-08T06:14:15.458Z,94488
2018-03-08T06:16:43.537Z,94495
2018-03-08T06:19:11.722Z,94492
2018-03-08T06:21:39.795Z,94500
2018-03-08T06:24:07.874Z,94499
2018-03-08T06:26:35.942Z,94510
2018-03-08T06:29:04.014Z,94499
2018-03-08T06:31:32.118Z,94514
2018-03-08T06:34:00.173Z,94520
2018-03-08T06:36:28.234Z,94517
2018-03-08T06:38:56.289Z,94509
2018-03-08T06:41:24.399Z,94524
2018-03-08T06:43:52.462Z,94530
2018-03-08T06:46:20.514Z,94523
2018-03-08T06:48:49.906Z,94519
2018-03-08T06:51:19.843Z,94531
2018-03-08T06:53:49.009Z,94535
2018-03-08T06:56:17.841Z,94538
2018-03-08T06:58:45.950Z,94550
2018-03-08T07:01:14.011Z,94550
2018-03-08T07:03:42.082Z,94529
2018-03-08T07:06:10.172Z,94538
2018-03-08T07:08:38.250Z,94540
2018-03-08T07:11:06.330Z,94533
2018-03-08T07:13:34.413Z,94529
2018-03-08T07:16:02.586Z,94543
2018-03-08T07:18:30.660Z,94543
2018-03-08T07:20:58.714Z,94546
2018-03-08T07:23:26.881Z,94546
2018-03-08T07:25:55.002Z,94548
2018-03-08T07:28:23.170Z,94557
2018-03-08T07:30:52.973Z,94557
2018-03-08T07:33:21.033Z,94544
2018-03-08T07:35:49.649Z,94551
2018-03-08T07:38:17.730Z,94552
2018-03-08T07:40:45.790Z,94557
2018-03-08T07:43:13.889Z,94552
2018-03-08T07:45:42.335Z,94561
2018-03-08T07:48:10.442Z,94557
2018-03-08T07:50:38.490Z,94571
2018-03-08T07:53:06.590Z,94556
2018-03-08T07:55:34.637Z,94555
2018-03-08T07:58:02.702Z,94551
2018-03-08T08:00:30.826Z,94552
2018-03-08T08:02:58.886Z,94544
2018-03-08T08:05:44.794Z,94541
2018-03-08T08:11:23.483Z,94541
2018-03-08T08:13:52.238Z,94556
2018-03-08T08:16:21.698Z,94554
2018-03-08T08:18:50.199Z,94543
2018-03-08T08:21:18.259Z,94551
2018-03-08T08:23:47.006Z,94557
2018-03-08T08:26:15.846Z,94553
2018-03-08T08:28:43.950Z,94553
2018-03-08T08:31:12.106Z,94569
2018-03-08T08:33:40.178Z,94539
2018-03-08T08:36:08.239Z,94551
2018-03-08T08:38:36.298Z,94550
2018-03-08T08:41:05.470Z,94539
2018-03-08T08:43:34.290Z,94546
2018-03-08T08:46:02.350Z,94538
2018-03-08T08:48:31.204Z,94540
2018-03-08T08:50:59.264Z,94543
2018-03-08T08:53:27.331Z,94536
2018-03-08T08:55:55.397Z,94533
2018-03-08T08:58:23.459Z,94549
2018-03-08T09:00:52.402Z,94538
2018-03-08T09:03:21.464Z,94545
2018-03-08T09:05:51.050Z,94546
2018-03-08T09:08:21.009Z,94536
2018-03-08T09:10:49.494Z,94542
2018-03-08T09:13:17.578Z,94543
2018-03-08T09:15:45.666Z,94546
2018-03-08T09:18:13.719Z,94552
2018-03-08T09:20:41.791Z,94544
2018-03-08T09:23:09.909Z,94538
2018-03-08T09:25:37.974Z,94538
2018-03-08T09:28:06.052Z,94543
2018-03-08T09:30:34.102Z,94546
2018-03-08T09:33:02.149Z,94559
2018-03-08T09:35:30.994Z,94535
2018-03-08T09:37:59.055Z,94542
2018-03-08T09:40:27.574Z,94553
2018-03-08T09:42:55.642Z,94542
2018-03-08T09:45:23.689Z,94541
2018-03-08T09:47:52.417Z,94537
2018-03-08T09:50:21.286Z,94536
2018-03-08T09:52:49.366Z,94530
2018-03-08T09:55:17.416Z,94521
2018-03-08T09:57:45.519Z,94526
2018-03-08T10:00:13.570Z,94517
2018-03-08T10:02:41.674Z,94532
2018-03-08T10:05:09.722Z,94520
2018-03-08T10:07:37.830Z,94530
2018-03-08T10:10:05.907Z,94525
2018-03-08T10:12:33.982Z,94519
2018-03-08T10:15:02.597Z,94507
2018-03-08T10:17:30.650Z,94518
2018-03-08T10:19:58.699Z,94518
2018-03-08T10:22:26.759Z,94516
2018-03-08T10:24:54.875Z,94518
2018-03-08T10:27:22.939Z,94531
2018-03-08T10:29:54.258Z,94524
2018-03-08T10:32:22.302Z,94532
2018-03-08T10:34:50.362Z,94517
2018-03-08T10:37:18.592Z,94532
2018-03-08T10:39:46.678Z,94528
2018-03-08T10:42:15.466Z,94543
2018-03-08T10:44:43.578Z,94539
2018-03-08T10:47:11.988Z,94537
2018-03-08T10:49:40.146Z,94525
2018-03-08T10:52:08.196Z,94530
2018-03-08T10:54:36.918Z,94523
2018-03-08T10:57:04.986Z,94522
2018-03-08T10:59:33.034Z,94509
2018-03-08T11:02:02.849Z,94520
2018-03-08T11:04:36.857Z,94513
2018-03-08T11:07:04.911Z,94508
2018-03-08T11:09:33.738Z,94500
2018-03-08T11:12:01.880Z,94499
2018-03-08T11:14:30.702Z,94500
2018-03-08T11:16:58.808Z,94501
2018-03-08T11:19:26.981Z,94505
2018-03-08T11:21:55.148Z,94494
2018-03-08T11:24:23.217Z,94488
2018-03-08T11:26:53.372Z,94492
2018-03-08T11:29:22.411Z,94480
2018-03-08T11:31:50.522Z,94479
2018-03-08T11:34:18.593Z,94487
2018-03-08T11:36:46.657Z,94478
2018-03-08T11:39:14.718Z,94472
2018-03-08T11:41:42.774Z,94470
2018-03-08T11:44:11.694Z,94468
2018-03-08T11:46:40.534Z,94470
2018-03-08T11:49:08.640Z,94472
2018-03-08T11:51:36.803Z,94471
2018-03-08T11:54:05.684Z,94483
2018-03-08T11:56:33.767Z,94464
2018-03-08T11:59:01.933Z,94469
2018-03-08T12:01:30.014Z,94460
2018-03-08T12:03:58.294Z,94466
2018-03-08T12:06:26.353Z,94463
2018-03-08T12:08:54.417Z,94458
2018-03-08T12:11:22.630Z,94445
2018-03-08T12:13:50.696Z,94456
2018-03-08T12:16:19.021Z,94458
2018-03-08T12:18:48.062Z,94449
2018-03-08T12:21:16.110Z,94435
2018-03-08T12:23:44.179Z,94442
2018-03-08T12:26:13.051Z,94439
2018-03-08T12:28:41.199Z,94427
2018-03-08T12:31:09.266Z,94429
2018-03-08T12:33:39.729Z,94438
2018-03-08T12:36:07.892Z,94429
2018-03-08T12:38:35.971Z,94439
2018-03-08T12:41:04.147Z,94426
2018-03-08T12:43:32.202Z,94429
2018-03-08T12:46:00.262Z,94433
2018-03-08T12:48:28.336Z,94429
2018-03-08T12:50:56.401Z,94440
2018-03-08T12:53:25.225Z,94424
2018-03-08T12:55:54.062Z,94436
2018-03-08T12:58:23.039Z,94425
2018-03-08T13:00:52.228Z,94435
2018-03-08T13:03:20.289Z,94428
2018-03-08T13:05:48.361Z,94425
2018-03-08T13:08:16.470Z,94426
2018-03-08T13:10:44.544Z,94433
2018-03-08T13:13:12.592Z,94424
2018-03-08T13:15:41.540Z,94417
2018-03-08T13:18:09.590Z,94427
2018-03-08T13:20:37.762Z,94411
2018-03-08T13:23:05.832Z,94421
2018-03-08T13:25:33.910Z,94412
2018-03-08T13:28:01.974Z,94407
2018-03-08T13:30:30.066Z,94401
2018-03-08T13:32:58.138Z,94405
2018-03-08T13:35:26.211Z,94402
2018-03-08T13:37:54.616Z,94392
2018-03-08T13:40:23.356Z,94381
2018-03-08T13:42:52.391Z,94377
2018-03-08T13:45:20.495Z,94375
2018-03-08T13:47:48.559Z,94380
2018-03-08T13:50:16.735Z,94372
2018-03-08T13:52:44.810Z,94372
2018-03-08T13:55:12.982Z,94369
2018-03-08T13:57:41.066Z,94361
2018-03-08T14:00:09.238Z,94365
2018-03-08T14:02:37.317Z,94361
2018-03-08T14:05:05.491Z,94370
2018-03-08T14:07:33.550Z,94360
2018-03-08T14:10:01.626Z,94356
2018-03-08T14:12:29.686Z,94365
2018-03-08T14:14:57.814Z,94357
2018-03-08T14:17:25.870Z,94349
2018-03-08T14:19:56.222Z,94335
2018-03-08T14:22:25.409Z,94337
2018-03-08T14:24:53.471Z,94339
2018-03-08T14:27:21.549Z,94340
2018-03-08T14:29:49.609Z,94326
2018-03-08T14:32:17.705Z,94323
2018-03-08T14:34:45.857Z,94326
2018-03-08T14:37:13.926Z,94324
2018-03-08T14:39:42.012Z,94313
2018-03-08T14:42:10.186Z,94318
2018-03-08T14:44:38.654Z,94307
2018-03-08T14:47:06.846Z,94315
2018-03-08T14:49:34.898Z,94318
2018-03-08T14:52:03.759Z,94315
2018-03-08T14:54:31.840Z,94312
2018-03-08T14:57:00.026Z,94310
2018-03-08T14:59:28.081Z,94307
2018-03-08T15:01:56.156Z,94304
2018-03-08T15:04:24.236Z,94291
2018-03-08T15:06:52.850Z,94294
2018-03-08T15:09:20.910Z,94294
2018-03-08T15:11:48.972Z,94283
2018-03-08T15:14:17.158Z,94282
2018-03-08T15:16:45.329Z,94280
2018-03-08T15:19:13.407Z,94276
2018-03-08T15:21:41.473Z,94275
2018-03-08T15:24:09.550Z,94273
2018-03-08T15:26:37.602Z,94269
2018-03-08T15:29:05.713Z,94265
2018-03-08T15:31:33.806Z,94270
2018-03-08T15:34:02.446Z,94261
2018-03-08T15:36:30.550Z,94262
2018-03-08T15:38:58.614Z,94253
2018-03-08T15:41:26.690Z,94257
2018-03-08T15:43:54.758Z,94261
2018-03-08T15:46:22.872Z,94254
2018-03-08T15:48:52.059Z,94259
2018-03-08T15:51:20.726Z,94266
2018-03-08T15:53:49.024Z,94252
2018-03-08T15:56:17.074Z,94263
2018-03-08T15:58:45.142Z,94259
2018-03-08T16:01:13.423Z,94271
2018-03-08T16:03:42.366Z,94270
2018-03-08T16:06:11.109Z,94257
2018-03-08T16:09:06.756Z,94267
2018-03-08T16:11:34.810Z,94266
2018-03-08T16:14:03.699Z,94267
2018-03-08T16:16:31.754Z,94272
2018-03-08T16:19:00.696Z,94268
2018-03-08T16:21:38.622Z,94268
2018-03-08T16:24:06.747Z,94265
2018-03-08T16:26:34.802Z,94274
2018-03-08T16:29:03.876Z,94270
2018-03-08T16:31:32.129Z,94263
2018-03-08T16:34:00.345Z,94279
2018-03-08T16:36:28.636Z,94270
2018-03-08T16:38:56.691Z,94279
2018-03-08T16:41:24.822Z,94271
2018-03-08T16:43:53.024Z,94272
2018-03-08T16:46:21.094Z,94272
2018-03-08T16:48:49.182Z,94276
2018-03-08T16:51:17.250Z,94267
2018-03-08T16:53:45.343Z,94267
2018-03-08T16:56:13.437Z,94268
2018-03-08T16:58:41.487Z,94258
2018-03-08T17:01:09.663Z,94258
2018-03-08T17:03:38.658Z,94261
2018-03-08T17:06:06.755Z,94266
2018-03-08T17:08:35.570Z,94281
2018-03-08T17:11:04.540Z,94273
2018-03-08T17:13:33.586Z,94270
2018-03-08T17:16:02.447Z,94272
2018-03-08T17:18:30.611Z,94276
2018-03-08T17:20:58.796Z,94288
2018-03-08T17:23:27.523Z,94282
2018-03-08T17:25:57.491Z,94284
2018-03-08T17:28:25.743Z,94291
2018-03-08T17:30:53.726Z,94301
2018-03-08T17:33:22.434Z,94293
2018-03-08T17:35:51.146Z,94288
2018-03-08T17:38:19.218Z,94300
2018-03-08T17:40:47.274Z,94297
2018-03-08T17:43:16.332Z,94297
2018-03-08T17:45:45.177Z,94307
2018-03-08T17:48:13.271Z,94308
2018-03-08T17:50:42.447Z,94322
2018-03-08T17:53:10.506Z,94324
2018-03-08T17:55:38.603Z,94326
2018-03-08T17:58:06.715Z,94335
2018-03-08T18:00:34.771Z,94321
2018-03-08T18:03:03.258Z,94321
2018-03-08T18:05:32.328Z,94321
2018-03-08T18:08:01.963Z,94327
2018-03-08T18:10:30.082Z,94331
2018-03-08T18:13:00.079Z,94339
2018-03-08T18:15:28.143Z,94331
2018-03-08T18:17:56.289Z,94334
2018-03-08T18:20:24.472Z,94338
2018-03-08T18:22:52.570Z,94337
2018-03-08T18:25:21.558Z,94341
2018-03-08T18:27:49.717Z,94351
2018-03-08T18:30:17.784Z,94354
2018-03-08T18:32:46.179Z,94358
2018-03-08T18:35:14.262Z,94347
2018-03-08T18:37:42.533Z,94349
2018-03-08T18:40:11.654Z,94361
2018-03-08T18:42:39.731Z,94362
2018-03-08T18:45:07.855Z,94355
2018-03-08T18:47:35.956Z,94364
2018-03-08T18:50:04.038Z,94364
2018-03-08T18:52:32.491Z,94368
2018-03-08T18:55:01.336Z,94364
2018-03-08T18:57:30.278Z,94368
2018-03-08T18:59:59.810Z,94367
2018-03-08T19:02:29.174Z,94364
2018-03-08T19:04:59.676Z,94354
2018-03-08T19:07:29.911Z,94359
2018-03-08T19:09:58.510Z,94352
2018-03-08T19:12:26.562Z,94344
2018-03-08T19:14:55.342Z,94347
2018-03-08T19:17:23.390Z,94341
2018-03-08T19:19:52.450Z,94341
2018-03-08T19:22:22.164Z,94353
2018-03-08T19:24:50.224Z,94345
2018-03-08T19:27:18.270Z,94355
2018-03-08T19:29:46.434Z,94344
2018-03-08T19:32:14.558Z,94341
2018-03-08T19:34:42.635Z,94349
2018-03-08T19:37:11.070Z,94350
2018-03-08T19:39:39.888Z,94346
2018-03-08T19:42:07.929Z,94347
2018-03-08T19:44:36.832Z,94345
2018-03-08T19:47:06.276Z,94360
2018-03-08T19:49:34.347Z,94348
2018-03-08T19:52:02.419Z,94354
2018-03-08T19:54:30.564Z,94354
2018-03-08T19:57:00.046Z,94365
2018-03-08T19:59:29.409Z,94358
2018-03-08T20:01:57.470Z,94359
2018-03-08T20:04:25.527Z,94368
2018-03-08T20:06:54.494Z,94376
2018-03-08T20:09:22.595Z,94374
2018-03-08T20:11:52.579Z,94382
2018-03-08T20:14:20.661Z,94374
2018-03-08T20:16:49.124Z,94384
2018-03-08T20:19:17.175Z,94380
2018-03-08T20:21:45.230Z,94399
2018-03-08T20:24:14.177Z,94386
2018-03-08T20:26:43.063Z,94398
2018-03-08T20:29:11.107Z,94388
2018-03-08T20:31:39.975Z,94397
2018-03-08T20:34:08.014Z,94399
2018-03-08T20:36:36.074Z,94399
2018-03-08T20:39:04.125Z,94409
2018-03-08T20:41:32.961Z,94401
2018-03-08T20:44:01.014Z,94411
2018-03-08T20:46:29.954Z,94403
2018-03-08T20:48:57.994Z,94401
2018-03-08T20:51:26.129Z,94405
2018-03-08T20:53:54.588Z,94414
2018-03-08T20:56:22.759Z,94412
2018-03-08T20:58:50.838Z,94424
2018-03-08T21:01:18.906Z,94420
2018-03-08T21:03:46.958Z,94416
2018-03-08T21:06:15.094Z,94421
2018-03-08T21:08:43.144Z,94445
2018-03-08T21:11:11.198Z,94432
2018-03-08T21:13:39.250Z,94436
2018-03-08T21:16:08.074Z,94433
2018-03-08T21:18:36.172Z,94448
2018-03-08T21:21:04.341Z,94446
2018-03-08T21:23:32.401Z,94449
2018-03-08T21:26:01.266Z,94454
2018-03-08T21:28:31.196Z,94456
2018-03-08T21:31:00.374Z,94466
2018-03-08T21:33:29.231Z,94459
2018-03-08T21:35:57.285Z,94464
2018-03-08T21:38:26.062Z,94482
2018-03-08T21:40:54.110Z,94479
2018-03-08T21:43:22.947Z,94496
2018-03-08T21:45:52.150Z,94488
2018-03-08T21:48:20.207Z,94491
2018-03-08T21:50:48.318Z,94504
2018-03-08T21:53:16.389Z,94501
2018-03-08T21:55:44.463Z,94505
2018-03-08T21:58:12.546Z,94503
2018-03-08T22:00:40.601Z,94507
2018-03-08T22:03:08.645Z,94496
2018-03-08T22:05:37.594Z,94506
2018-03-08T22:08:06.918Z,94513
2018-03-08T22:10:34.965Z,94510
2018-03-08T22:13:03.043Z,94511
2018-03-08T22:15:31.238Z,94501
2018-03-08T22:17:59.297Z,94503
2018-03-08T22:20:27.348Z,94519
2018-03-08T22:22:55.399Z,94513
2018-03-08T22:25:24.213Z,94506
2018-03-08T22:27:52.266Z,94514
2018-03-08T22:30:21.112Z,94519
2018-03-08T22:32:49.222Z,94511
2018-03-08T22:35:17.274Z,94524
2018-03-08T22:37:45.341Z,94517
2018-03-08T22:40:13.382Z,94519
2018-03-08T22:42:41.430Z,94519
2018-03-08T22:45:09.582Z,94525
2018-03-08T22:47:37.755Z,94525
2018-03-08T22:50:05.809Z,94522
2018-03-08T22:52:33.879Z,94526
2018-03-08T22:55:01.926Z,94521
2018-03-08T22:57:31.893Z,94510
2018-03-08T22:59:59.978Z,94522
2018-03-08T23:02:33.955Z,94525
2018-03-08T23:05:03.570Z,94518
2018-03-08T23:07:33.610Z,94517
2018-03-08T23:10:02.118Z,94508
2018-03-08T23:12:30.165Z,94518
2018-03-08T23:14:58.574Z,94525
2018-03-08T23:17:26.643Z,94524
2018-03-08T23:19:54.694Z,94515
2018-03-08T23:22:23.019Z,94514
2018-03-08T23:24:52.989Z,94526
2018-03-08T23:27:21.033Z,94521
2018-03-08T23:29:49.863Z,94522
2018-03-08T23:32:17.910Z,94531
2018-03-08T23:34:46.755Z,94537
2018-03-08T23:37:14.846Z,94535
2018-03-08T23:39:42.902Z,94535
2018-03-08T23:42:10.947Z,94538
2018-03-08T23:44:39.066Z,94539
2018-03-08T23:47:07.146Z,94539
2018-03-08T23:49:35.198Z,94543
2018-03-08T23:52:03.245Z,94539
2018-03-08T23:54:33.182Z,94545
2018-03-08T23:57:01.231Z,94540
2018-03-08T23:59:30.101Z,94549
